Terminal Aerodrome Forecast
Issued by NWS

Current Version | Previous Version | Text Only | Print | Product List | Glossary On
Versions: 1 2 3 4 5 6 7 8 9 10 11 12 13 14 15 16 17 18 19 20 21 22
000
FTUS46 KMTR 252300
TAFOAK
TAF
KOAK 252320Z 2600/2706 28012G22KT P6SM FEW030 SCT250
     FM260800 26008KT P6SM BKN015
     FM261700 26011KT P6SM SCT018
     FM262100 29012KT P6SM FEW025
     FM270300 29009KT P6SM FEW020=

USA.gov is the U.S. government's official web portal to all federal, state and local government web resources and services.